sensor_id;sensor_type;location;lat;lon;timestamp;P1;durP1;ratioP1;P2;durP2;ratioP2
24151;SDS011;12311;50.866;4.332;2022-08-19T00:01:47;13.88;;;5.25;;
24151;SDS011;12311;50.866;4.332;2022-08-19T00:04:14;12.50;;;5.20;;
24151;SDS011;12311;50.866;4.332;2022-08-19T00:06:42;10.82;;;5.25;;
24151;SDS011;12311;50.866;4.332;2022-08-19T00:09:11;13.20;;;5.80;;
24151;SDS011;12311;50.866;4.332;2022-08-19T00:11:40;15.10;;;6.70;;
24151;SDS011;12311;50.866;4.332;2022-08-19T00:14:07;15.05;;;6.15;;
24151;SDS011;12311;50.866;4.332;2022-08-19T00:16:35;16.33;;;7.72;;
24151;SDS011;12311;50.866;4.332;2022-08-19T00:19:02;15.35;;;7.80;;
24151;SDS011;12311;50.866;4.332;2022-08-19T00:21:28;16.38;;;8.15;;
24151;SDS011;12311;50.866;4.332;2022-08-19T00:23:54;14.75;;;6.00;;
24151;SDS011;12311;50.866;4.332;2022-08-19T00:26:23;20.63;;;8.25;;
24151;SDS011;12311;50.866;4.332;2022-08-19T00:28:50;19.63;;;8.45;;
24151;SDS011;12311;50.866;4.332;2022-08-19T00:31:15;21.00;;;9.15;;
24151;SDS011;12311;50.866;4.332;2022-08-19T00:33:41;20.42;;;7.78;;
24151;SDS011;12311;50.866;4.332;2022-08-19T00:36:08;18.02;;;7.53;;
24151;SDS011;12311;50.866;4.332;2022-08-19T00:38:34;22.15;;;8.70;;
24151;SDS011;12311;50.866;4.332;2022-08-19T00:41:01;24.83;;;9.82;;
24151;SDS011;12311;50.866;4.332;2022-08-19T00:43:27;25.90;;;9.23;;
24151;SDS011;12311;50.866;4.332;2022-08-19T00:45:53;28.52;;;10.65;;
24151;SDS011;12311;50.866;4.332;2022-08-19T00:48:20;27.98;;;10.23;;
24151;SDS011;12311;50.866;4.332;2022-08-19T00:50:46;20.42;;;8.10;;
24151;SDS011;12311;50.866;4.332;2022-08-19T00:53:16;21.45;;;9.18;;
24151;SDS011;12311;50.866;4.332;2022-08-19T00:55:48;24.67;;;10.20;;
24151;SDS011;12311;50.866;4.332;2022-08-19T00:58:16;27.70;;;9.88;;
24151;SDS011;12311;50.866;4.332;2022-08-19T01:00:44;27.30;;;10.50;;
24151;SDS011;12311;50.866;4.332;2022-08-19T01:03:12;27.23;;;10.18;;
24151;SDS011;12311;50.866;4.332;2022-08-19T01:05:41;27.27;;;10.70;;
24151;SDS011;12311;50.866;4.332;2022-08-19T01:08:08;24.00;;;9.63;;
24151;SDS011;12311;50.866;4.332;2022-08-19T01:10:37;29.05;;;10.48;;
24151;SDS011;12311;50.866;4.332;2022-08-19T01:13:06;23.50;;;9.10;;
24151;SDS011;12311;50.866;4.332;2022-08-19T01:15:35;21.65;;;8.60;;
24151;SDS011;12311;50.866;4.332;2022-08-19T01:18:08;23.42;;;9.32;;
24151;SDS011;12311;50.866;4.332;2022-08-19T01:20:37;25.27;;;10.15;;
24151;SDS011;12311;50.866;4.332;2022-08-19T01:23:05;25.08;;;9.25;;
24151;SDS011;12311;50.866;4.332;2022-08-19T01:25:32;25.15;;;11.65;;
24151;SDS011;12311;50.866;4.332;2022-08-19T01:28:07;20.92;;;9.60;;
24151;SDS011;12311;50.866;4.332;2022-08-19T01:30:33;22.55;;;8.57;;
24151;SDS011;12311;50.866;4.332;2022-08-19T01:33:00;24.88;;;8.07;;
24151;SDS011;12311;50.866;4.332;2022-08-19T01:35:27;19.75;;;8.02;;
24151;SDS011;12311;50.866;4.332;2022-08-19T01:37:59;23.13;;;9.07;;
24151;SDS011;12311;50.866;4.332;2022-08-19T01:40:28;18.50;;;7.40;;
24151;SDS011;12311;50.866;4.332;2022-08-19T01:42:55;26.77;;;8.30;;
24151;SDS011;12311;50.866;4.332;2022-08-19T01:45:22;22.10;;;8.05;;
24151;SDS011;12311;50.866;4.332;2022-08-19T01:47:50;15.43;;;5.93;;
24151;SDS011;12311;50.866;4.332;2022-08-19T01:50:16;16.52;;;7.70;;
24151;SDS011;12311;50.866;4.332;2022-08-19T01:52:43;18.73;;;7.90;;
24151;SDS011;12311;50.866;4.332;2022-08-19T01:55:11;19.13;;;6.97;;
24151;SDS011;12311;50.866;4.332;2022-08-19T01:57:40;17.65;;;7.82;;
24151;SDS011;12311;50.866;4.332;2022-08-19T02:00:10;20.13;;;7.45;;
24151;SDS011;12311;50.866;4.332;2022-08-19T02:02:39;18.35;;;7.60;;
24151;SDS011;12311;50.866;4.332;2022-08-19T02:05:04;14.82;;;6.18;;
24151;SDS011;12311;50.866;4.332;2022-08-19T02:07:32;20.05;;;7.15;;
24151;SDS011;12311;50.866;4.332;2022-08-19T02:09:58;15.07;;;6.60;;
24151;SDS011;12311;50.866;4.332;2022-08-19T02:12:23;14.50;;;6.78;;
24151;SDS011;12311;50.866;4.332;2022-08-19T02:14:49;15.35;;;6.20;;
24151;SDS011;12311;50.866;4.332;2022-08-19T02:17:14;14.18;;;6.18;;
24151;SDS011;12311;50.866;4.332;2022-08-19T02:19:40;14.68;;;5.85;;
24151;SDS011;12311;50.866;4.332;2022-08-19T02:22:06;11.35;;;5.65;;
24151;SDS011;12311;50.866;4.332;2022-08-19T02:24:31;11.18;;;5.13;;
24151;SDS011;12311;50.866;4.332;2022-08-19T02:26:57;21.27;;;7.38;;
24151;SDS011;12311;50.866;4.332;2022-08-19T02:29:23;19.02;;;5.75;;
24151;SDS011;12311;50.866;4.332;2022-08-19T02:31:49;14.43;;;5.07;;
24151;SDS011;12311;50.866;4.332;2022-08-19T02:34:15;14.68;;;5.93;;
24151;SDS011;12311;50.866;4.332;2022-08-19T02:36:41;12.88;;;5.00;;
24151;SDS011;12311;50.866;4.332;2022-08-19T02:39:07;13.20;;;5.70;;
24151;SDS011;12311;50.866;4.332;2022-08-19T02:41:33;16.00;;;6.35;;
24151;SDS011;12311;50.866;4.332;2022-08-19T02:44:00;14.82;;;5.72;;
24151;SDS011;12311;50.866;4.332;2022-08-19T02:46:29;14.25;;;5.40;;
24151;SDS011;12311;50.866;4.332;2022-08-19T02:48:57;12.52;;;5.32;;
24151;SDS011;12311;50.866;4.332;2022-08-19T02:51:26;13.57;;;4.93;;
24151;SDS011;12311;50.866;4.332;2022-08-19T02:53:54;16.83;;;4.95;;
24151;SDS011;12311;50.866;4.332;2022-08-19T02:56:20;12.32;;;6.57;;
24151;SDS011;12311;50.866;4.332;2022-08-19T02:58:46;14.27;;;5.65;;
24151;SDS011;12311;50.866;4.332;2022-08-19T03:01:34;13.18;;;4.88;;
24151;SDS011;12311;50.866;4.332;2022-08-19T03:04:00;14.48;;;5.53;;
24151;SDS011;12311;50.866;4.332;2022-08-19T03:06:28;14.27;;;6.40;;
24151;SDS011;12311;50.866;4.332;2022-08-19T03:08:54;9.90;;;4.68;;
24151;SDS011;12311;50.866;4.332;2022-08-19T03:11:28;12.10;;;5.53;;
24151;SDS011;12311;50.866;4.332;2022-08-19T03:13:55;13.18;;;5.32;;
24151;SDS011;12311;50.866;4.332;2022-08-19T03:16:23;17.02;;;6.07;;
24151;SDS011;12311;50.866;4.332;2022-08-19T03:18:49;17.13;;;6.70;;
24151;SDS011;12311;50.866;4.332;2022-08-19T03:21:17;17.80;;;5.35;;
24151;SDS011;12311;50.866;4.332;2022-08-19T03:23:45;13.43;;;5.78;;
24151;SDS011;12311;50.866;4.332;2022-08-19T03:26:11;13.98;;;6.38;;
24151;SDS011;12311;50.866;4.332;2022-08-19T03:28:36;17.15;;;6.43;;
24151;SDS011;12311;50.866;4.332;2022-08-19T03:31:04;19.55;;;5.93;;
24151;SDS011;12311;50.866;4.332;2022-08-19T03:33:33;19.88;;;6.68;;
24151;SDS011;12311;50.866;4.332;2022-08-19T03:36:12;18.80;;;6.07;;
24151;SDS011;12311;50.866;4.332;2022-08-19T03:38:41;15.70;;;5.47;;
24151;SDS011;12311;50.866;4.332;2022-08-19T03:41:16;20.33;;;6.50;;
24151;SDS011;12311;50.866;4.332;2022-08-19T03:43:44;12.63;;;5.10;;
24151;SDS011;12311;50.866;4.332;2022-08-19T03:46:15;14.50;;;5.85;;
24151;SDS011;12311;50.866;4.332;2022-08-19T03:48:46;14.77;;;6.10;;
24151;SDS011;12311;50.866;4.332;2022-08-19T03:51:17;13.77;;;5.63;;
24151;SDS011;12311;50.866;4.332;2022-08-19T03:53:44;17.20;;;6.45;;
24151;SDS011;12311;50.866;4.332;2022-08-19T03:56:10;16.10;;;5.78;;
24151;SDS011;12311;50.866;4.332;2022-08-19T03:58:37;14.50;;;4.40;;
24151;SDS011;12311;50.866;4.332;2022-08-19T04:01:07;15.82;;;6.68;;
24151;SDS011;12311;50.866;4.332;2022-08-19T04:03:34;12.40;;;4.65;;
24151;SDS011;12311;50.866;4.332;2022-08-19T04:06:11;12.55;;;5.75;;
24151;SDS011;12311;50.866;4.332;2022-08-19T04:08:42;13.57;;;4.75;;
24151;SDS011;12311;50.866;4.332;2022-08-19T04:11:11;19.10;;;6.80;;
24151;SDS011;12311;50.866;4.332;2022-08-19T04:13:39;16.00;;;7.00;;
24151;SDS011;12311;50.866;4.332;2022-08-19T04:16:05;12.85;;;4.65;;
24151;SDS011;12311;50.866;4.332;2022-08-19T04:18:31;15.30;;;5.88;;
24151;SDS011;12311;50.866;4.332;2022-08-19T04:20:58;14.20;;;5.80;;
24151;SDS011;12311;50.866;4.332;2022-08-19T04:23:25;14.23;;;5.45;;
24151;SDS011;12311;50.866;4.332;2022-08-19T04:25:53;13.10;;;6.82;;
24151;SDS011;12311;50.866;4.332;2022-08-19T04:28:19;15.45;;;5.20;;
24151;SDS011;12311;50.866;4.332;2022-08-19T04:30:45;17.50;;;6.75;;
24151;SDS011;12311;50.866;4.332;2022-08-19T04:33:14;14.57;;;5.93;;
24151;SDS011;12311;50.866;4.332;2022-08-19T04:35:42;13.23;;;6.07;;
24151;SDS011;12311;50.866;4.332;2022-08-19T04:38:10;13.80;;;4.78;;
24151;SDS011;12311;50.866;4.332;2022-08-19T04:40:40;11.27;;;4.70;;
24151;SDS011;12311;50.866;4.332;2022-08-19T04:45:54;13.70;;;5.75;;
24151;SDS011;12311;50.866;4.332;2022-08-19T04:48:20;13.57;;;5.65;;
24151;SDS011;12311;50.866;4.332;2022-08-19T04:50:53;14.27;;;6.20;;
24151;SDS011;12311;50.866;4.332;2022-08-19T04:53:26;10.40;;;4.88;;
24151;SDS011;12311;50.866;4.332;2022-08-19T04:55:54;11.95;;;4.28;;
24151;SDS011;12311;50.866;4.332;2022-08-19T04:58:23;26.17;;;5.95;;
24151;SDS011;12311;50.866;4.332;2022-08-19T05:00:51;15.05;;;4.72;;
24151;SDS011;12311;50.866;4.332;2022-08-19T05:03:17;13.63;;;5.03;;
24151;SDS011;12311;50.866;4.332;2022-08-19T05:05:44;11.05;;;4.32;;
24151;SDS011;12311;50.866;4.332;2022-08-19T05:08:13;12.30;;;5.22;;
24151;SDS011;12311;50.866;4.332;2022-08-19T05:10:44;11.82;;;5.45;;
24151;SDS011;12311;50.866;4.332;2022-08-19T05:13:11;15.85;;;5.18;;
24151;SDS011;12311;50.866;4.332;2022-08-19T05:15:37;12.18;;;4.88;;
24151;SDS011;12311;50.866;4.332;2022-08-19T05:18:03;11.30;;;4.85;;
24151;SDS011;12311;50.866;4.332;2022-08-19T05:20:47;10.27;;;4.45;;
24151;SDS011;12311;50.866;4.332;2022-08-19T05:23:31;10.25;;;3.80;;
24151;SDS011;12311;50.866;4.332;2022-08-19T05:25:56;15.70;;;5.72;;
24151;SDS011;12311;50.866;4.332;2022-08-19T05:28:22;17.88;;;6.32;;
24151;SDS011;12311;50.866;4.332;2022-08-19T05:30:48;9.77;;;3.40;;
24151;SDS011;12311;50.866;4.332;2022-08-19T05:33:15;10.07;;;4.68;;
24151;SDS011;12311;50.866;4.332;2022-08-19T05:35:42;10.13;;;4.95;;
24151;SDS011;12311;50.866;4.332;2022-08-19T05:38:08;13.88;;;5.80;;
24151;SDS011;12311;50.866;4.332;2022-08-19T05:40:34;16.50;;;5.82;;
24151;SDS011;12311;50.866;4.332;2022-08-19T05:43:04;15.40;;;5.45;;
24151;SDS011;12311;50.866;4.332;2022-08-19T05:45:31;13.13;;;4.63;;
24151;SDS011;12311;50.866;4.332;2022-08-19T05:47:57;10.77;;;4.57;;
24151;SDS011;12311;50.866;4.332;2022-08-19T05:50:23;11.25;;;3.83;;
24151;SDS011;12311;50.866;4.332;2022-08-19T05:52:51;12.68;;;4.80;;
24151;SDS011;12311;50.866;4.332;2022-08-19T05:55:18;15.45;;;6.13;;
24151;SDS011;12311;50.866;4.332;2022-08-19T05:57:45;9.90;;;4.10;;
24151;SDS011;12311;50.866;4.332;2022-08-19T06:00:11;12.52;;;4.18;;
24151;SDS011;12311;50.866;4.332;2022-08-19T06:02:37;10.70;;;4.68;;
24151;SDS011;12311;50.866;4.332;2022-08-19T06:05:04;12.75;;;3.95;;
24151;SDS011;12311;50.866;4.332;2022-08-19T06:07:33;11.05;;;4.20;;
24151;SDS011;12311;50.866;4.332;2022-08-19T06:10:00;8.07;;;4.55;;
24151;SDS011;12311;50.866;4.332;2022-08-19T06:12:30;9.85;;;4.97;;
24151;SDS011;12311;50.866;4.332;2022-08-19T06:15:03;10.88;;;4.50;;
24151;SDS011;12311;50.866;4.332;2022-08-19T06:17:33;8.68;;;3.85;;
24151;SDS011;12311;50.866;4.332;2022-08-19T06:20:00;8.52;;;3.97;;
24151;SDS011;12311;50.866;4.332;2022-08-19T06:22:26;7.45;;;3.58;;
24151;SDS011;12311;50.866;4.332;2022-08-19T06:24:53;7.88;;;3.35;;
24151;SDS011;12311;50.866;4.332;2022-08-19T06:27:20;8.52;;;2.83;;
24151;SDS011;12311;50.866;4.332;2022-08-19T06:29:46;8.35;;;3.00;;
24151;SDS011;12311;50.866;4.332;2022-08-19T06:32:14;7.63;;;3.40;;
24151;SDS011;12311;50.866;4.332;2022-08-19T06:34:41;8.05;;;3.25;;
24151;SDS011;12311;50.866;4.332;2022-08-19T06:37:07;9.00;;;3.55;;
24151;SDS011;12311;50.866;4.332;2022-08-19T06:39:36;10.35;;;3.47;;
24151;SDS011;12311;50.866;4.332;2022-08-19T06:42:03;8.18;;;3.42;;
24151;SDS011;12311;50.866;4.332;2022-08-19T06:44:33;5.70;;;2.60;;
24151;SDS011;12311;50.866;4.332;2022-08-19T06:47:03;5.22;;;2.22;;
24151;SDS011;12311;50.866;4.332;2022-08-19T06:49:31;6.30;;;2.80;;
24151;SDS011;12311;50.866;4.332;2022-08-19T06:51:57;4.95;;;2.72;;
24151;SDS011;12311;50.866;4.332;2022-08-19T06:54:24;9.82;;;2.85;;
24151;SDS011;12311;50.866;4.332;2022-08-19T06:56:51;15.35;;;3.25;;
24151;SDS011;12311;50.866;4.332;2022-08-19T06:59:18;10.38;;;2.58;;
24151;SDS011;12311;50.866;4.332;2022-08-19T07:01:46;7.28;;;2.35;;
24151;SDS011;12311;50.866;4.332;2022-08-19T07:04:15;12.70;;;2.72;;
24151;SDS011;12311;50.866;4.332;2022-08-19T07:06:42;7.95;;;3.03;;
24151;SDS011;12311;50.866;4.332;2022-08-19T07:09:09;9.50;;;2.67;;
24151;SDS011;12311;50.866;4.332;2022-08-19T07:11:36;6.53;;;2.45;;
24151;SDS011;12311;50.866;4.332;2022-08-19T07:14:02;7.18;;;2.08;;
24151;SDS011;12311;50.866;4.332;2022-08-19T07:16:28;4.68;;;3.08;;
24151;SDS011;12311;50.866;4.332;2022-08-19T07:18:55;10.45;;;2.75;;
24151;SDS011;12311;50.866;4.332;2022-08-19T07:21:25;4.40;;;1.95;;
24151;SDS011;12311;50.866;4.332;2022-08-19T07:23:53;8.02;;;2.97;;
24151;SDS011;12311;50.866;4.332;2022-08-19T07:26:24;11.65;;;2.63;;
24151;SDS011;12311;50.866;4.332;2022-08-19T07:28:52;3.88;;;1.88;;
24151;SDS011;12311;50.866;4.332;2022-08-19T07:31:19;6.78;;;2.35;;
24151;SDS011;12311;50.866;4.332;2022-08-19T07:33:47;5.28;;;1.83;;
24151;SDS011;12311;50.866;4.332;2022-08-19T07:36:16;5.22;;;1.90;;
24151;SDS011;12311;50.866;4.332;2022-08-19T07:38:44;6.05;;;2.03;;
24151;SDS011;12311;50.866;4.332;2022-08-19T07:41:13;3.25;;;1.70;;
24151;SDS011;12311;50.866;4.332;2022-08-19T07:43:41;3.55;;;1.75;;
24151;SDS011;12311;50.866;4.332;2022-08-19T07:46:08;9.48;;;2.63;;
24151;SDS011;12311;50.866;4.332;2022-08-19T07:48:35;4.95;;;1.50;;
24151;SDS011;12311;50.866;4.332;2022-08-19T07:51:02;7.72;;;2.70;;
24151;SDS011;12311;50.866;4.332;2022-08-19T07:53:29;10.52;;;2.33;;
24151;SDS011;12311;50.866;4.332;2022-08-19T07:55:57;7.43;;;2.63;;
24151;SDS011;12311;50.866;4.332;2022-08-19T07:58:26;4.70;;;2.47;;
24151;SDS011;12311;50.866;4.332;2022-08-19T08:00:52;4.72;;;2.28;;
24151;SDS011;12311;50.866;4.332;2022-08-19T08:03:19;6.60;;;1.98;;
24151;SDS011;12311;50.866;4.332;2022-08-19T08:06:06;4.65;;;1.77;;
24151;SDS011;12311;50.866;4.332;2022-08-19T08:08:51;2.65;;;1.52;;
24151;SDS011;12311;50.866;4.332;2022-08-19T08:11:35;5.97;;;2.13;;
24151;SDS011;12311;50.866;4.332;2022-08-19T08:14:07;3.30;;;1.88;;
24151;SDS011;12311;50.866;4.332;2022-08-19T08:16:35;2.72;;;1.67;;
24151;SDS011;12311;50.866;4.332;2022-08-19T08:19:05;4.95;;;2.55;;
24151;SDS011;12311;50.866;4.332;2022-08-19T08:21:31;4.13;;;2.30;;
24151;SDS011;12311;50.866;4.332;2022-08-19T08:23:58;5.07;;;2.35;;
24151;SDS011;12311;50.866;4.332;2022-08-19T08:26:24;3.92;;;1.98;;
24151;SDS011;12311;50.866;4.332;2022-08-19T08:28:51;3.55;;;1.67;;
24151;SDS011;12311;50.866;4.332;2022-08-19T08:31:17;2.85;;;1.80;;
24151;SDS011;12311;50.866;4.332;2022-08-19T08:33:44;5.50;;;1.90;;
24151;SDS011;12311;50.866;4.332;2022-08-19T08:36:10;3.63;;;1.92;;
24151;SDS011;12311;50.866;4.332;2022-08-19T08:38:39;7.40;;;1.48;;
24151;SDS011;12311;50.866;4.332;2022-08-19T08:41:29;6.10;;;2.47;;
24151;SDS011;12311;50.866;4.332;2022-08-19T08:43:59;2.30;;;1.45;;
24151;SDS011;12311;50.866;4.332;2022-08-19T08:46:51;4.80;;;1.77;;
24151;SDS011;12311;50.866;4.332;2022-08-19T08:51:58;3.45;;;1.75;;
24151;SDS011;12311;50.866;4.332;2022-08-19T08:54:37;2.95;;;1.30;;
24151;SDS011;12311;50.866;4.332;2022-08-19T08:57:18;3.72;;;1.38;;
24151;SDS011;12311;50.866;4.332;2022-08-19T08:59:53;6.13;;;1.70;;
24151;SDS011;12311;50.866;4.332;2022-08-19T09:02:21;4.18;;;1.63;;
24151;SDS011;12311;50.866;4.332;2022-08-19T09:04:47;2.97;;;1.30;;
24151;SDS011;12311;50.866;4.332;2022-08-19T09:10:07;3.25;;;1.10;;
24151;SDS011;12311;50.866;4.332;2022-08-19T09:15:25;3.25;;;1.55;;
24151;SDS011;12311;50.866;4.332;2022-08-19T09:18:04;2.78;;;1.58;;
24151;SDS011;12311;50.866;4.332;2022-08-19T09:20:31;4.93;;;1.50;;
24151;SDS011;12311;50.866;4.332;2022-08-19T09:22:57;5.25;;;1.67;;
24151;SDS011;12311;50.866;4.332;2022-08-19T09:25:23;12.45;;;1.88;;
24151;SDS011;12311;50.866;4.332;2022-08-19T09:27:50;4.85;;;1.38;;
24151;SDS011;12311;50.866;4.332;2022-08-19T09:30:22;3.42;;;1.13;;
24151;SDS011;12311;50.866;4.332;2022-08-19T09:35:17;2.88;;;1.30;;
24151;SDS011;12311;50.866;4.332;2022-08-19T09:37:44;5.82;;;1.20;;
24151;SDS011;12311;50.866;4.332;2022-08-19T09:40:10;1.48;;;1.00;;
24151;SDS011;12311;50.866;4.332;2022-08-19T09:42:36;3.65;;;1.35;;
24151;SDS011;12311;50.866;4.332;2022-08-19T09:45:02;3.35;;;1.15;;
24151;SDS011;12311;50.866;4.332;2022-08-19T09:47:29;3.08;;;1.15;;
24151;SDS011;12311;50.866;4.332;2022-08-19T09:49:54;1.73;;;1.20;;
24151;SDS011;12311;50.866;4.332;2022-08-19T09:52:20;2.30;;;1.63;;
24151;SDS011;12311;50.866;4.332;2022-08-19T09:54:46;2.63;;;1.40;;
24151;SDS011;12311;50.866;4.332;2022-08-19T09:57:12;3.05;;;1.52;;
24151;SDS011;12311;50.866;4.332;2022-08-19T09:59:38;3.72;;;1.65;;
24151;SDS011;12311;50.866;4.332;2022-08-19T10:02:04;2.03;;;1.10;;
24151;SDS011;12311;50.866;4.332;2022-08-19T10:04:30;3.28;;;1.10;;
24151;SDS011;12311;50.866;4.332;2022-08-19T10:07:14;3.28;;;1.58;;
24151;SDS011;12311;50.866;4.332;2022-08-19T10:09:40;4.35;;;1.38;;
24151;SDS011;12311;50.866;4.332;2022-08-19T10:12:06;2.40;;;1.00;;
24151;SDS011;12311;50.866;4.332;2022-08-19T10:14:33;3.28;;;1.83;;
24151;SDS011;12311;50.866;4.332;2022-08-19T10:16:59;5.97;;;1.45;;
24151;SDS011;12311;50.866;4.332;2022-08-19T10:19:27;4.63;;;1.33;;
24151;SDS011;12311;50.866;4.332;2022-08-19T10:21:55;2.25;;;1.25;;
24151;SDS011;12311;50.866;4.332;2022-08-19T10:24:20;2.60;;;1.50;;
24151;SDS011;12311;50.866;4.332;2022-08-19T10:26:49;2.90;;;1.30;;
24151;SDS011;12311;50.866;4.332;2022-08-19T10:29:14;3.00;;;1.77;;
24151;SDS011;12311;50.866;4.332;2022-08-19T10:31:41;1.73;;;1.27;;
24151;SDS011;12311;50.866;4.332;2022-08-19T10:34:07;3.28;;;1.55;;
24151;SDS011;12311;50.866;4.332;2022-08-19T10:36:34;4.38;;;1.35;;
24151;SDS011;12311;50.866;4.332;2022-08-19T10:39:04;3.67;;;1.67;;
24151;SDS011;12311;50.866;4.332;2022-08-19T10:41:32;2.72;;;1.30;;
24151;SDS011;12311;50.866;4.332;2022-08-19T10:44:01;2.53;;;1.38;;
24151;SDS011;12311;50.866;4.332;2022-08-19T10:46:30;4.80;;;1.65;;
24151;SDS011;12311;50.866;4.332;2022-08-19T10:48:57;4.13;;;1.52;;
24151;SDS011;12311;50.866;4.332;2022-08-19T10:51:27;2.95;;;1.30;;
24151;SDS011;12311;50.866;4.332;2022-08-19T10:54:12;2.17;;;1.33;;
24151;SDS011;12311;50.866;4.332;2022-08-19T10:56:37;5.43;;;1.67;;
24151;SDS011;12311;50.866;4.332;2022-08-19T10:59:32;4.20;;;1.80;;
24151;SDS011;12311;50.866;4.332;2022-08-19T11:02:00;12.40;;;4.65;;
24151;SDS011;12311;50.866;4.332;2022-08-19T11:04:28;4.07;;;1.48;;
24151;SDS011;12311;50.866;4.332;2022-08-19T11:06:53;10.50;;;2.55;;
24151;SDS011;12311;50.866;4.332;2022-08-19T11:09:22;10.05;;;2.50;;
24151;SDS011;12311;50.866;4.332;2022-08-19T11:11:51;4.15;;;1.30;;
24151;SDS011;12311;50.866;4.332;2022-08-19T11:14:17;7.35;;;3.30;;
24151;SDS011;12311;50.866;4.332;2022-08-19T11:16:45;5.88;;;2.00;;
24151;SDS011;12311;50.866;4.332;2022-08-19T11:19:12;3.63;;;1.83;;
24151;SDS011;12311;50.866;4.332;2022-08-19T11:21:41;4.90;;;1.65;;
24151;SDS011;12311;50.866;4.332;2022-08-19T11:24:10;1.73;;;1.17;;
24151;SDS011;12311;50.866;4.332;2022-08-19T11:26:38;1.92;;;1.30;;
24151;SDS011;12311;50.866;4.332;2022-08-19T11:29:05;5.80;;;2.00;;
24151;SDS011;12311;50.866;4.332;2022-08-19T11:31:36;4.60;;;1.70;;
24151;SDS011;12311;50.866;4.332;2022-08-19T11:34:04;5.13;;;2.22;;
24151;SDS011;12311;50.866;4.332;2022-08-19T11:36:32;3.60;;;1.70;;
24151;SDS011;12311;50.866;4.332;2022-08-19T11:38:58;5.28;;;2.33;;
24151;SDS011;12311;50.866;4.332;2022-08-19T11:41:24;3.75;;;2.13;;
24151;SDS011;12311;50.866;4.332;2022-08-19T11:43:51;4.28;;;2.10;;
24151;SDS011;12311;50.866;4.332;2022-08-19T11:46:20;3.30;;;1.50;;
24151;SDS011;12311;50.866;4.332;2022-08-19T11:48:48;5.07;;;2.10;;
24151;SDS011;12311;50.866;4.332;2022-08-19T11:51:16;3.80;;;1.92;;
24151;SDS011;12311;50.866;4.332;2022-08-19T11:53:46;3.42;;;1.70;;
24151;SDS011;12311;50.866;4.332;2022-08-19T11:56:12;2.65;;;1.40;;
24151;SDS011;12311;50.866;4.332;2022-08-19T11:58:39;4.60;;;1.92;;
24151;SDS011;12311;50.866;4.332;2022-08-19T12:01:13;3.28;;;1.85;;
24151;SDS011;12311;50.866;4.332;2022-08-19T12:03:41;2.85;;;1.80;;
24151;SDS011;12311;50.866;4.332;2022-08-19T12:06:09;2.88;;;1.42;;
24151;SDS011;12311;50.866;4.332;2022-08-19T12:08:41;4.03;;;1.45;;
24151;SDS011;12311;50.866;4.332;2022-08-19T12:11:08;2.83;;;1.52;;
24151;SDS011;12311;50.866;4.332;2022-08-19T12:13:36;4.10;;;1.30;;
24151;SDS011;12311;50.866;4.332;2022-08-19T12:16:23;3.03;;;1.63;;
24151;SDS011;12311;50.866;4.332;2022-08-19T12:18:50;3.90;;;1.50;;
24151;SDS011;12311;50.866;4.332;2022-08-19T12:21:17;2.33;;;1.15;;
24151;SDS011;12311;50.866;4.332;2022-08-19T12:23:46;3.30;;;1.42;;
24151;SDS011;12311;50.866;4.332;2022-08-19T12:26:13;1.98;;;1.25;;
24151;SDS011;12311;50.866;4.332;2022-08-19T12:28:39;5.03;;;1.67;;
24151;SDS011;12311;50.866;4.332;2022-08-19T12:31:06;3.17;;;1.60;;
24151;SDS011;12311;50.866;4.332;2022-08-19T12:33:32;3.28;;;1.52;;
24151;SDS011;12311;50.866;4.332;2022-08-19T12:36:05;2.35;;;1.08;;
24151;SDS011;12311;50.866;4.332;2022-08-19T12:38:33;2.45;;;1.20;;
24151;SDS011;12311;50.866;4.332;2022-08-19T12:40:59;2.55;;;1.10;;
24151;SDS011;12311;50.866;4.332;2022-08-19T12:43:25;1.10;;;0.75;;
24151;SDS011;12311;50.866;4.332;2022-08-19T12:45:51;4.13;;;1.10;;
24151;SDS011;12311;50.866;4.332;2022-08-19T12:48:17;2.22;;;0.77;;
24151;SDS011;12311;50.866;4.332;2022-08-19T12:50:44;1.50;;;0.90;;
24151;SDS011;12311;50.866;4.332;2022-08-19T12:53:10;1.20;;;1.05;;
24151;SDS011;12311;50.866;4.332;2022-08-19T12:55:37;2.35;;;1.23;;
24151;SDS011;12311;50.866;4.332;2022-08-19T12:58:03;3.90;;;1.75;;
24151;SDS011;12311;50.866;4.332;2022-08-19T13:00:29;1.40;;;1.02;;
24151;SDS011;12311;50.866;4.332;2022-08-19T13:02:57;1.60;;;1.00;;
24151;SDS011;12311;50.866;4.332;2022-08-19T13:05:24;1.70;;;0.88;;
24151;SDS011;12311;50.866;4.332;2022-08-19T13:07:52;2.03;;;1.30;;
24151;SDS011;12311;50.866;4.332;2022-08-19T13:10:23;2.15;;;1.20;;
24151;SDS011;12311;50.866;4.332;2022-08-19T13:12:50;1.48;;;0.65;;
24151;SDS011;12311;50.866;4.332;2022-08-19T13:15:17;0.77;;;0.65;;
24151;SDS011;12311;50.866;4.332;2022-08-19T13:17:47;1.55;;;1.10;;
24151;SDS011;12311;50.866;4.332;2022-08-19T13:20:14;1.45;;;1.00;;
24151;SDS011;12311;50.866;4.332;2022-08-19T13:22:41;2.58;;;1.33;;
24151;SDS011;12311;50.866;4.332;2022-08-19T13:25:07;3.00;;;1.05;;
24151;SDS011;12311;50.866;4.332;2022-08-19T13:27:33;1.58;;;0.80;;
24151;SDS011;12311;50.866;4.332;2022-08-19T13:30:00;1.35;;;0.80;;
24151;SDS011;12311;50.866;4.332;2022-08-19T13:32:44;1.08;;;0.63;;
24151;SDS011;12311;50.866;4.332;2022-08-19T13:35:28;1.02;;;0.90;;
24151;SDS011;12311;50.866;4.332;2022-08-19T13:37:54;1.08;;;0.70;;
24151;SDS011;12311;50.866;4.332;2022-08-19T13:40:21;4.93;;;0.80;;
24151;SDS011;12311;50.866;4.332;2022-08-19T13:42:49;1.98;;;0.68;;
24151;SDS011;12311;50.866;4.332;2022-08-19T13:45:18;1.20;;;0.80;;
24151;SDS011;12311;50.866;4.332;2022-08-19T13:47:46;0.75;;;0.63;;
24151;SDS011;12311;50.866;4.332;2022-08-19T13:50:14;1.98;;;0.80;;
24151;SDS011;12311;50.866;4.332;2022-08-19T13:52:42;1.50;;;0.95;;
24151;SDS011;12311;50.866;4.332;2022-08-19T13:55:08;1.63;;;0.80;;
24151;SDS011;12311;50.866;4.332;2022-08-19T13:57:35;1.65;;;0.73;;
24151;SDS011;12311;50.866;4.332;2022-08-19T14:00:05;1.33;;;0.82;;
24151;SDS011;12311;50.866;4.332;2022-08-19T14:02:35;0.82;;;0.70;;
24151;SDS011;12311;50.866;4.332;2022-08-19T14:05:03;1.05;;;0.75;;
24151;SDS011;12311;50.866;4.332;2022-08-19T14:07:30;1.83;;;1.20;;
24151;SDS011;12311;50.866;4.332;2022-08-19T14:09:56;2.05;;;1.10;;
24151;SDS011;12311;50.866;4.332;2022-08-19T14:12:22;2.45;;;0.70;;
24151;SDS011;12311;50.866;4.332;2022-08-19T14:14:48;1.38;;;0.95;;
24151;SDS011;12311;50.866;4.332;2022-08-19T14:17:14;2.17;;;1.00;;
24151;SDS011;12311;50.866;4.332;2022-08-19T14:19:41;2.42;;;0.80;;
24151;SDS011;12311;50.866;4.332;2022-08-19T14:22:07;2.17;;;1.05;;
24151;SDS011;12311;50.866;4.332;2022-08-19T14:24:34;2.03;;;0.90;;
24151;SDS011;12311;50.866;4.332;2022-08-19T14:27:01;1.75;;;1.00;;
24151;SDS011;12311;50.866;4.332;2022-08-19T14:29:28;1.80;;;0.88;;
24151;SDS011;12311;50.866;4.332;2022-08-19T14:31:54;1.52;;;1.00;;
24151;SDS011;12311;50.866;4.332;2022-08-19T14:34:21;1.92;;;0.70;;
24151;SDS011;12311;50.866;4.332;2022-08-19T14:36:47;1.40;;;0.90;;
24151;SDS011;12311;50.866;4.332;2022-08-19T14:39:13;7.28;;;1.00;;
24151;SDS011;12311;50.866;4.332;2022-08-19T14:41:39;2.15;;;1.38;;
24151;SDS011;12311;50.866;4.332;2022-08-19T14:44:06;3.60;;;1.00;;
24151;SDS011;12311;50.866;4.332;2022-08-19T14:46:34;1.70;;;0.98;;
24151;SDS011;12311;50.866;4.332;2022-08-19T14:49:00;1.48;;;0.82;;
24151;SDS011;12311;50.866;4.332;2022-08-19T14:51:26;1.70;;;1.00;;
24151;SDS011;12311;50.866;4.332;2022-08-19T14:53:52;2.70;;;1.17;;
24151;SDS011;12311;50.866;4.332;2022-08-19T14:56:19;2.22;;;1.17;;
24151;SDS011;12311;50.866;4.332;2022-08-19T14:58:47;1.55;;;0.85;;
24151;SDS011;12311;50.866;4.332;2022-08-19T15:01:16;0.80;;;0.60;;